createdAt,value
2019-04-03T00:01:50.054Z,21.21
2019-04-03T00:03:51.581Z,20.94
2019-04-03T00:05:53.165Z,21.17
2019-04-03T00:07:54.752Z,21.14
2019-04-03T00:09:56.393Z,21.12
2019-04-03T00:11:58.016Z,21.07
2019-04-03T00:13:59.600Z,21.06
2019-04-03T00:16:01.228Z,21.04
2019-04-03T00:18:02.820Z,20.98
2019-04-03T00:20:04.431Z,20.98
2019-04-03T00:22:06.024Z,20.97
2019-04-03T00:24:07.608Z,20.98
2019-04-03T00:26:09.233Z,21.04
2019-04-03T00:28:10.903Z,21.06
2019-04-03T00:30:12.480Z,21.06
2019-04-03T00:32:14.055Z,21.05
2019-04-03T00:34:15.636Z,21.05
2019-04-03T00:36:17.230Z,21.07
2019-04-03T00:38:18.934Z,21.09
2019-04-03T00:40:20.482Z,21.10
2019-04-03T00:42:24.155Z,21.14
2019-04-03T00:44:24.253Z,21.17
2019-04-03T00:46:25.411Z,21.17
2019-04-03T00:48:27.037Z,21.17
2019-04-03T00:50:28.724Z,21.15
2019-04-03T00:52:30.257Z,21.13
2019-04-03T00:54:31.855Z,21.11
2019-04-03T00:56:33.476Z,21.08
2019-04-03T00:58:35.060Z,21.06
2019-04-03T01:00:36.652Z,21.05
2019-04-03T01:02:38.255Z,21.03
2019-04-03T01:04:39.897Z,21.01
2019-04-03T01:06:41.519Z,21.02
2019-04-03T01:08:43.105Z,21.05
2019-04-03T01:10:44.711Z,21.08
2019-04-03T01:12:46.365Z,21.07
2019-04-03T01:14:47.948Z,21.05
2019-04-03T01:16:49.532Z,21.01
2019-04-03T01:18:51.152Z,21.01
2019-04-03T01:20:52.766Z,20.98
2019-04-03T01:22:54.353Z,21.03
2019-04-03T01:24:55.960Z,21.09
2019-04-03T01:26:57.775Z,21.12
2019-04-03T01:28:59.205Z,21.08
2019-04-03T01:31:00.788Z,21.10
2019-04-03T01:33:02.401Z,21.08
2019-04-03T01:35:04.016Z,21.06
2019-04-03T01:37:05.705Z,21.02
2019-04-03T01:39:07.268Z,21.01
2019-04-03T01:41:08.862Z,20.96
2019-04-03T01:43:10.453Z,20.94
2019-04-03T01:45:12.046Z,20.97
2019-04-03T01:47:13.628Z,20.99
2019-04-03T01:49:15.239Z,20.99
2019-04-03T01:51:16.848Z,20.98
2019-04-03T01:53:18.497Z,20.96
2019-04-03T01:55:20.091Z,20.93
2019-04-03T01:57:21.684Z,20.93
2019-04-03T01:59:23.286Z,20.91
2019-04-03T02:01:24.876Z,21.02
2019-04-03T02:03:26.480Z,21.10
2019-04-03T02:05:28.221Z,21.21
2019-04-03T02:07:29.736Z,21.31
2019-04-03T02:09:31.320Z,21.41
2019-04-03T02:11:32.966Z,21.46
2019-04-03T02:13:34.560Z,21.50
2019-04-03T02:15:36.202Z,21.59
2019-04-03T02:17:37.804Z,21.63
2019-04-03T02:19:39.388Z,21.65
2019-04-03T02:21:41.014Z,21.66
2019-04-03T02:23:42.604Z,21.64
2019-04-03T02:25:44.223Z,21.68
2019-04-03T02:27:45.834Z,21.73
2019-04-03T02:29:47.419Z,21.75
2019-04-03T02:31:51.722Z,21.73
2019-04-03T02:33:50.721Z,21.76
2019-04-03T02:35:52.317Z,21.77
2019-04-03T02:37:53.924Z,21.91
2019-04-03T02:39:59.159Z,21.96
2019-04-03T02:41:57.346Z,21.99
2019-04-03T02:43:58.781Z,22.03
2019-04-03T02:46:00.365Z,22.02
2019-04-03T02:48:04.564Z,21.99
2019-04-03T02:50:03.710Z,21.95
2019-04-03T02:52:05.265Z,21.93
2019-04-03T02:54:06.919Z,21.92
2019-04-03T02:56:11.634Z,21.94
2019-04-03T02:58:10.168Z,21.99
2019-04-03T03:00:11.855Z,21.95
2019-04-03T03:02:13.730Z,21.92
2019-04-03T03:04:15.254Z,21.93
2019-04-03T03:06:16.804Z,21.97
2019-04-03T03:08:22.043Z,21.94
2019-04-03T03:10:20.564Z,21.95
2019-04-03T03:12:21.676Z,21.94
2019-04-03T03:14:23.310Z,21.97
2019-04-03T03:16:25.033Z,21.93
2019-04-03T03:18:27.236Z,21.94
2019-04-03T03:20:28.318Z,21.92
2019-04-03T03:22:29.923Z,21.93
2019-04-03T03:24:31.795Z,21.91
2019-04-03T03:26:36.222Z,21.94
2019-04-03T03:28:34.930Z,21.89
2019-04-03T03:30:46.055Z,21.90
2019-04-03T03:32:38.732Z,21.92
2019-04-03T03:35:07.548Z,21.91
2019-04-03T03:36:41.765Z,21.87
2019-04-03T03:38:43.154Z,21.90
2019-04-03T03:40:47.472Z,21.87
2019-04-03T03:42:46.402Z,21.84
2019-04-03T03:44:47.990Z,21.80
2019-04-03T03:46:49.605Z,21.76
2019-04-03T03:48:51.219Z,21.73
2019-04-03T03:50:55.499Z,21.69
2019-04-03T03:52:54.470Z,21.71
2019-04-03T03:54:56.113Z,21.67
2019-04-03T03:56:57.724Z,21.67
2019-04-03T03:58:59.359Z,21.72
2019-04-03T04:01:01.149Z,21.78
2019-04-03T04:03:02.615Z,21.81
2019-04-03T04:05:04.265Z,21.82
2019-04-03T04:07:05.910Z,21.78
2019-04-03T04:09:07.526Z,21.73
2019-04-03T04:11:09.173Z,21.69
2019-04-03T04:13:13.882Z,21.68
2019-04-03T04:15:12.426Z,21.65
2019-04-03T04:17:16.771Z,21.61
2019-04-03T04:19:15.697Z,21.58
2019-04-03T04:21:17.342Z,21.54
2019-04-03T04:23:23.003Z,21.53
2019-04-03T04:25:20.627Z,21.58
2019-04-03T04:27:22.220Z,21.61
2019-04-03T04:29:23.987Z,21.62
2019-04-03T04:31:25.454Z,21.60
2019-04-03T04:33:27.060Z,21.62
2019-04-03T04:35:28.673Z,21.65
2019-04-03T04:37:30.301Z,21.68
2019-04-03T04:39:31.948Z,21.69
2019-04-03T04:41:33.647Z,21.71
2019-04-03T04:43:35.443Z,21.73
2019-04-03T04:45:36.880Z,21.74
2019-04-03T04:47:38.480Z,21.76
2019-04-03T04:49:40.109Z,21.79
2019-04-03T04:51:41.909Z,21.80
2019-04-03T04:53:43.462Z,21.81
2019-04-03T04:55:45.035Z,21.81
2019-04-03T04:57:46.645Z,21.84
2019-04-03T04:59:48.247Z,21.83
2019-04-03T05:01:49.872Z,21.79
2019-04-03T05:03:51.957Z,21.79
2019-04-03T05:05:53.148Z,21.80
2019-04-03T05:07:54.997Z,21.80
2019-04-03T05:09:56.506Z,21.79
2019-04-03T05:11:58.111Z,21.82
2019-04-03T05:13:59.751Z,21.85
2019-04-03T05:16:01.519Z,21.85
2019-04-03T05:18:03.060Z,21.86
2019-04-03T05:20:04.634Z,21.87
2019-04-03T05:22:06.248Z,21.88
2019-04-03T05:24:12.861Z,21.95
2019-04-03T05:26:09.771Z,21.93
2019-04-03T05:28:11.205Z,21.92
2019-04-03T05:30:12.800Z,21.97
2019-04-03T05:32:14.411Z,22.02
2019-04-03T05:34:16.009Z,22.05
2019-04-03T05:36:18.316Z,22.06
2019-04-03T05:38:21.706Z,22.06
2019-04-03T05:40:20.866Z,22.06
2019-04-03T05:42:22.476Z,22.05
2019-04-03T05:44:24.142Z,22.01
2019-04-03T05:46:25.752Z,22.04
2019-04-03T05:48:27.361Z,22.08
2019-04-03T05:50:29.073Z,22.07
2019-04-03T05:52:30.628Z,22.07
2019-04-03T05:54:32.341Z,22.03
2019-04-03T05:56:33.914Z,22.00
2019-04-03T05:58:35.515Z,21.99
2019-04-03T06:00:38.136Z,21.97
2019-04-03T06:02:38.756Z,22.00
2019-04-03T06:04:41.494Z,22.02
2019-04-03T06:06:42.048Z,21.98
2019-04-03T06:08:43.656Z,22.01
2019-04-03T06:10:45.296Z,21.98
2019-04-03T06:12:46.889Z,22.00
2019-04-03T06:14:50.266Z,22.00
2019-04-03T06:16:50.168Z,21.98
2019-04-03T06:18:52.051Z,21.99
2019-04-03T06:20:53.469Z,22.02
2019-04-03T06:22:55.267Z,22.11
2019-04-03T06:24:57.098Z,22.16
2019-04-03T06:26:58.361Z,22.18
2019-04-03T06:28:59.944Z,22.14
2019-04-03T06:31:01.580Z,22.11
2019-04-03T06:33:03.193Z,22.09
2019-04-03T06:35:04.780Z,22.10
2019-04-03T06:37:06.364Z,22.14
2019-04-03T06:39:08.009Z,22.02
2019-04-03T06:41:09.656Z,21.95
2019-04-03T06:43:11.264Z,21.96
2019-04-03T06:45:15.427Z,21.96
2019-04-03T06:47:14.507Z,21.95
2019-04-03T06:49:16.164Z,21.98
2019-04-03T06:51:17.848Z,21.98
2019-04-03T06:53:19.631Z,21.98
2019-04-03T06:55:21.089Z,21.98
2019-04-03T06:57:23.017Z,21.97
2019-04-03T06:59:24.363Z,22.03
2019-04-03T07:01:25.948Z,22.23
2019-04-03T07:03:27.531Z,22.08
2019-04-03T07:32:06.934Z,21.27
2019-04-03T07:34:08.369Z,21.31
2019-04-03T07:36:11.578Z,21.31
2019-04-03T07:38:11.625Z,21.06
2019-04-03T07:40:13.452Z,21.27
2019-04-03T07:42:15.031Z,21.24
2019-04-03T07:44:16.570Z,21.21
2019-04-03T07:46:18.184Z,21.19
2019-04-03T07:48:19.800Z,21.17
2019-04-03T07:50:21.419Z,21.17
2019-04-03T07:52:23.031Z,21.17
2019-04-03T08:19:23.566Z,21.46
2019-04-03T08:23:37.646Z,21.60
2019-04-03T08:25:38.745Z,21.63
2019-04-03T08:27:40.336Z,21.65
2019-04-03T08:29:42.175Z,21.68
2019-04-03T08:31:46.521Z,21.59
2019-04-03T08:33:45.188Z,21.68
2019-04-03T08:35:46.798Z,21.72
2019-04-03T08:37:48.388Z,21.78
2019-04-03T08:39:50.152Z,21.96
2019-04-03T08:41:51.670Z,21.99
2019-04-03T08:43:53.242Z,22.12
2019-04-03T08:47:37.132Z,22.07
2019-04-03T08:49:37.192Z,22.19
2019-04-03T08:51:38.992Z,22.23
2019-04-03T09:13:29.696Z,22.13
2019-04-03T09:15:31.340Z,22.17
2019-04-03T09:17:34.045Z,22.20
2019-04-03T09:19:34.599Z,22.24
2019-04-03T09:21:36.174Z,22.27
2019-04-03T09:23:37.777Z,22.28
2019-04-03T09:25:39.355Z,22.29
2019-04-03T09:27:41.296Z,22.31
2019-04-03T09:29:44.590Z,22.30
2019-04-03T09:31:44.224Z,22.28
2019-04-03T09:33:46.027Z,22.28
2019-04-03T09:35:47.462Z,22.25
2019-04-03T09:37:49.080Z,22.22
2019-04-03T09:39:50.664Z,22.22
2019-04-03T09:41:52.304Z,22.25
2019-04-03T09:43:54.652Z,22.27
2019-04-03T09:45:55.866Z,22.16
2019-04-03T09:47:57.284Z,22.31
2019-04-03T09:49:58.867Z,22.33
2019-04-03T09:52:00.466Z,22.33
2019-04-03T09:54:02.087Z,22.34
2019-04-03T09:56:03.692Z,22.32
2019-04-03T09:58:05.652Z,22.34
2019-04-03T10:00:09.897Z,22.33
2019-04-03T10:02:09.226Z,22.34
2019-04-03T10:04:10.519Z,22.32
2019-04-03T10:06:12.177Z,22.32
2019-04-03T10:08:13.878Z,22.31
2019-04-03T10:10:16.550Z,22.31
2019-04-03T10:12:17.115Z,22.30
2019-04-03T10:14:18.711Z,22.28
2019-04-03T10:16:20.324Z,22.18
2019-04-03T10:18:22.247Z,22.21
2019-04-03T10:20:23.569Z,22.26
2019-04-03T10:22:25.422Z,22.25
2019-04-03T10:24:26.858Z,22.31
2019-04-03T10:26:30.807Z,22.29
2019-04-03T10:28:30.141Z,22.31
2019-04-03T10:30:31.802Z,22.31
2019-04-03T10:32:33.597Z,22.31
2019-04-03T10:34:36.119Z,22.31
2019-04-03T10:36:36.776Z,22.33
2019-04-03T10:38:38.834Z,22.31
2019-04-03T10:40:40.033Z,22.29
2019-04-03T10:42:41.664Z,22.27
2019-04-03T10:44:43.302Z,22.25
2019-04-03T10:46:44.892Z,22.24
2019-04-03T10:48:46.502Z,22.23
2019-04-03T10:50:48.293Z,22.24
2019-04-03T10:52:49.908Z,22.25
2019-04-03T10:54:51.466Z,22.28
2019-04-03T10:56:53.179Z,22.31
2019-04-03T10:58:54.684Z,22.35
2019-04-03T11:00:58.727Z,22.34
2019-04-03T11:02:57.983Z,22.34
2019-04-03T11:05:00.595Z,22.31
2019-04-03T11:07:01.452Z,22.31
2019-04-03T11:09:03.235Z,22.27
2019-04-03T11:11:05.093Z,22.14
2019-04-03T11:13:06.722Z,22.15
2019-04-03T11:15:10.796Z,22.17
2019-04-03T11:17:09.669Z,22.18
2019-04-03T11:19:11.256Z,22.16
2019-04-03T11:21:13.494Z,22.16
2019-04-03T11:23:14.551Z,22.14
2019-04-03T11:25:16.226Z,22.13
2019-04-03T11:27:17.856Z,22.14
2019-04-03T11:29:20.730Z,22.17
2019-04-03T11:31:26.582Z,22.19
2019-04-03T11:33:23.736Z,22.23
2019-04-03T11:35:25.390Z,22.24
2019-04-03T11:37:27.242Z,22.24
2019-04-03T11:39:28.827Z,22.23
2019-04-03T11:41:30.361Z,22.23
2019-04-03T11:43:32.398Z,22.32
2019-04-03T11:45:33.798Z,22.47
2019-04-03T11:47:35.317Z,22.54
2019-04-03T11:49:36.915Z,22.27
2019-04-03T11:51:38.529Z,22.63
2019-04-03T11:53:41.217Z,22.67
2019-04-03T11:55:42.774Z,22.68
2019-04-03T11:57:47.430Z,22.67
2019-04-03T11:59:47.382Z,22.67
2019-04-03T12:01:47.828Z,22.66
2019-04-03T12:03:51.145Z,22.66
2019-04-03T12:05:51.414Z,22.65
2019-04-03T12:07:55.548Z,22.67
2019-04-03T12:09:54.416Z,22.66
2019-04-03T12:11:56.011Z,22.65
2019-04-03T12:13:57.609Z,22.66
2019-04-03T12:15:59.435Z,22.68
2019-04-03T12:18:02.102Z,22.65
2019-04-03T12:20:02.525Z,22.64
2019-04-03T12:22:04.213Z,22.66
2019-04-03T12:24:06.010Z,22.67
2019-04-03T12:26:10.500Z,22.71
2019-04-03T12:28:09.153Z,22.72
2019-04-03T12:30:10.764Z,22.77
2019-04-03T12:32:12.357Z,22.79
2019-04-03T12:34:14.083Z,22.78
2019-04-03T12:36:16.022Z,22.80
2019-04-03T12:38:17.652Z,22.77
2019-04-03T12:40:19.441Z,22.77
2019-04-03T12:42:21.296Z,22.76
2019-04-03T12:44:22.691Z,22.75
2019-04-03T12:46:32.818Z,22.76
2019-04-03T12:48:31.424Z,22.77
2019-04-03T12:50:33.008Z,22.73
2019-04-03T12:52:34.664Z,22.73
2019-04-03T12:54:36.619Z,22.72
2019-04-03T12:56:38.207Z,22.77
2019-04-03T12:58:39.610Z,22.77
2019-04-03T13:00:41.228Z,22.79
2019-04-03T13:02:42.817Z,22.80
2019-04-03T13:04:44.803Z,22.52
2019-04-03T13:06:46.082Z,22.82
2019-04-03T13:08:47.681Z,22.82
2019-04-03T13:10:49.726Z,22.80
2019-04-03T13:12:51.329Z,22.81
2019-04-03T13:14:52.936Z,22.91
2019-04-03T13:16:54.364Z,22.97
2019-04-03T13:18:56.254Z,22.93
2019-04-03T13:20:58.192Z,22.48
2019-04-03T13:22:59.789Z,22.55
2019-04-03T13:25:01.794Z,22.44
2019-04-03T13:27:03.408Z,22.37
2019-04-03T13:29:06.973Z,22.34
2019-04-03T13:31:06.404Z,22.31
2019-04-03T13:33:08.014Z,22.29
2019-04-03T13:35:09.600Z,22.24
2019-04-03T13:37:11.185Z,22.17
2019-04-03T13:39:12.814Z,22.11
2019-04-03T13:41:14.781Z,22.01
2019-04-03T13:43:17.921Z,22.00
2019-04-03T13:45:18.305Z,21.69
2019-04-03T13:47:20.514Z,21.63
2019-04-03T13:49:22.351Z,21.65
2019-04-03T13:51:25.368Z,21.69
2019-04-03T13:53:25.819Z,21.71
2019-04-03T13:55:28.877Z,21.73
2019-04-03T13:57:28.657Z,21.71
2019-04-03T13:59:30.248Z,21.73
2019-04-03T14:01:31.869Z,21.73
2019-04-03T14:03:34.155Z,21.71
2019-04-03T14:05:35.337Z,21.68
2019-04-03T14:07:40.508Z,21.66
2019-04-03T14:09:38.651Z,21.59
2019-04-03T14:11:40.304Z,21.54
2019-04-03T14:13:43.684Z,21.52
2019-04-03T14:15:43.524Z,21.51
2019-04-03T14:17:55.408Z,21.43
2019-04-03T14:19:50.926Z,21.52
2019-04-03T14:21:48.460Z,21.52
2019-04-03T14:23:50.100Z,21.55
2019-04-03T14:26:03.096Z,21.53
2019-04-03T14:27:53.354Z,21.52
2019-04-03T14:29:54.960Z,21.48
2019-04-03T14:31:56.680Z,21.45
2019-04-03T14:33:58.485Z,21.44
2019-04-03T14:36:00.144Z,21.42
2019-04-03T14:38:01.582Z,21.41
2019-04-03T14:40:03.328Z,21.41
2019-04-03T14:42:07.161Z,21.40
2019-04-03T14:44:08.407Z,21.10
2019-04-03T14:46:08.533Z,21.33
2019-04-03T14:48:10.076Z,21.28
2019-04-03T14:50:11.704Z,21.21
2019-04-03T14:52:13.305Z,21.14
2019-04-03T14:54:15.180Z,21.09
2019-04-03T14:56:16.569Z,21.05
2019-04-03T14:58:18.223Z,21.01
2019-04-03T15:00:27.455Z,20.97
2019-04-03T15:02:23.714Z,20.95
2019-04-03T15:04:23.150Z,20.93
2019-04-03T15:06:24.741Z,20.91
2019-04-03T15:08:26.413Z,20.89
2019-04-03T15:10:30.675Z,20.76
2019-04-03T15:12:30.235Z,20.72
2019-04-03T15:14:31.420Z,20.39
2019-04-03T15:16:33.307Z,20.81
2019-04-03T15:18:34.957Z,20.79
2019-04-03T15:20:36.384Z,20.67
2019-04-03T15:22:38.130Z,20.80
2019-04-03T15:24:42.679Z,20.79
2019-04-03T15:26:41.282Z,20.78
2019-04-03T15:28:43.129Z,20.77
2019-04-03T15:30:44.596Z,20.66
2019-04-03T15:32:46.250Z,20.70
2019-04-03T15:34:50.535Z,20.73
2019-04-03T15:36:51.547Z,20.50
2019-04-03T15:38:51.224Z,20.76
2019-04-03T15:40:53.260Z,20.73
2019-04-03T15:42:55.190Z,20.75
2019-04-03T15:44:57.703Z,20.75
2019-04-03T15:47:00.740Z,20.73
2019-04-03T15:48:59.771Z,20.73
2019-04-03T15:51:01.260Z,20.72
2019-04-03T15:53:02.852Z,20.71
2019-04-03T15:55:04.878Z,20.68
2019-04-03T15:57:06.151Z,20.68
2019-04-03T15:59:10.339Z,20.65
2019-04-03T16:01:09.513Z,20.64
2019-04-03T16:03:11.140Z,20.95
2019-04-03T16:05:13.399Z,21.73
2019-04-03T16:07:14.436Z,22.10
2019-04-03T16:09:18.269Z,22.30
2019-04-03T16:11:18.146Z,22.39
2019-04-03T16:13:21.316Z,21.90
2019-04-03T16:15:22.736Z,21.32
2019-04-03T16:17:22.705Z,21.05
2019-04-03T16:19:24.716Z,20.88
2019-04-03T16:21:27.204Z,20.55
2019-04-03T16:23:27.581Z,20.73
2019-04-03T16:25:29.193Z,20.68
2019-04-03T16:27:30.779Z,20.65
2019-04-03T16:29:32.372Z,20.61
2019-04-03T16:31:34.001Z,20.58
2019-04-03T16:33:36.761Z,20.56
2019-04-03T16:35:37.491Z,20.53
2019-04-03T16:37:38.919Z,20.50
2019-04-03T16:39:40.535Z,20.47
2019-04-03T16:41:44.041Z,20.17
2019-04-03T16:43:43.792Z,20.43
2019-04-03T16:45:45.385Z,20.42
2019-04-03T16:47:47.036Z,20.40
2019-04-03T16:49:48.652Z,20.38
2019-04-03T16:51:50.324Z,20.34
2019-04-03T16:53:51.972Z,20.34
2019-04-03T16:55:53.993Z,20.32
2019-04-03T16:57:55.602Z,20.30
2019-04-03T16:59:56.908Z,20.29
2019-04-03T17:01:58.981Z,20.26
2019-04-03T17:04:02.706Z,20.24
2019-04-03T17:06:02.097Z,20.22
2019-04-03T17:08:03.724Z,20.20
2019-04-03T17:10:05.137Z,20.19
2019-04-03T17:12:06.761Z,20.18
2019-04-03T17:14:08.501Z,20.16
2019-04-03T17:16:10.020Z,20.14
2019-04-03T17:18:11.645Z,20.13
2019-04-03T17:20:13.237Z,20.13
2019-04-03T17:22:14.862Z,20.16
2019-04-03T17:24:17.853Z,20.18
2019-04-03T17:26:18.180Z,20.24
2019-04-03T17:28:19.939Z,20.26
2019-04-03T17:30:21.470Z,20.29
2019-04-03T17:32:23.451Z,20.30
2019-04-03T17:34:24.802Z,20.28
2019-04-03T17:36:26.788Z,20.26
2019-04-03T17:38:31.059Z,20.25
2019-04-03T17:40:29.747Z,20.22
2019-04-03T17:42:31.365Z,20.20
2019-04-03T17:44:32.984Z,20.18
2019-04-03T17:46:34.566Z,20.16
2019-04-03T17:48:36.199Z,20.14
2019-04-03T17:50:37.788Z,20.13
2019-04-03T17:52:39.411Z,20.10
2019-04-03T17:54:41.028Z,20.09
2019-04-03T17:56:43.081Z,20.04
2019-04-03T17:58:45.990Z,20.06
2019-04-03T18:00:45.995Z,20.10
2019-04-03T18:02:47.575Z,20.14
2019-04-03T18:04:51.146Z,20.18
2019-04-03T18:06:50.886Z,20.24
2019-04-03T18:08:52.486Z,20.29
2019-04-03T18:10:54.122Z,20.33
2019-04-03T18:12:55.717Z,20.39
2019-04-03T18:14:57.503Z,20.40
2019-04-03T18:17:01.172Z,20.41
2019-04-03T18:19:00.732Z,20.40
2019-04-03T18:21:02.351Z,20.40
2019-04-03T18:23:03.944Z,20.40
2019-04-03T18:25:07.944Z,20.44
2019-04-03T18:27:07.218Z,20.45
2019-04-03T18:29:09.059Z,20.47
2019-04-03T18:31:11.819Z,20.43
2019-04-03T18:33:12.351Z,20.17
2019-04-03T18:35:14.899Z,20.42
2019-04-03T18:37:16.494Z,20.39
2019-04-03T18:39:18.160Z,20.11
2019-04-03T18:41:19.757Z,20.41
2019-04-03T18:43:21.870Z,20.45
2019-04-03T18:45:25.607Z,20.45
2019-04-03T18:47:24.668Z,20.51
2019-04-03T18:49:26.302Z,20.53
2019-04-03T18:51:27.896Z,20.54
2019-04-03T18:53:29.536Z,20.51
2019-04-03T18:55:31.143Z,20.50
2019-04-03T18:57:32.736Z,20.49
2019-04-03T18:59:34.323Z,20.48
2019-04-03T19:01:38.010Z,20.44
2019-04-03T19:03:37.666Z,20.42
2019-04-03T19:05:39.265Z,20.40
2019-04-03T19:07:41.444Z,20.38
2019-04-03T19:09:43.064Z,20.36
2019-04-03T19:11:44.732Z,20.37
2019-04-03T19:13:49.150Z,20.38
2019-04-03T19:15:47.990Z,20.40
2019-04-03T19:17:59.298Z,20.88
2019-04-03T19:19:51.279Z,21.67
2019-04-03T19:21:54.667Z,21.98
2019-04-03T19:23:54.584Z,21.91
2019-04-03T19:25:56.177Z,21.71
2019-04-03T19:27:57.788Z,21.96
2019-04-03T19:29:59.384Z,22.06
2019-04-03T19:32:01.060Z,22.11
2019-04-03T19:34:02.708Z,22.00
2019-04-03T19:36:04.322Z,22.00
2019-04-03T19:38:05.944Z,22.09
2019-04-03T19:40:09.589Z,22.13
2019-04-03T19:42:09.240Z,22.23
2019-04-03T19:44:10.829Z,22.25
2019-04-03T19:46:12.492Z,22.35
2019-04-03T19:48:14.119Z,22.19
2019-04-03T19:50:15.738Z,22.29
2019-04-03T19:52:17.384Z,22.24
2019-04-03T19:54:19.053Z,22.12
2019-04-03T19:56:20.665Z,22.09
2019-04-03T19:58:22.257Z,22.16
2019-04-03T20:00:23.873Z,22.28
2019-04-03T20:02:25.505Z,22.35
2019-04-03T20:04:27.120Z,22.35
2019-04-03T20:06:28.718Z,22.49
2019-04-03T20:08:30.630Z,22.91
2019-04-03T20:10:33.743Z,23.00
2019-04-03T20:12:33.579Z,22.86
2019-04-03T20:14:35.233Z,22.76
2019-04-03T20:16:36.848Z,22.88
2019-04-03T20:18:38.447Z,23.20
2019-04-03T20:20:40.068Z,23.16
2019-04-03T20:22:42.628Z,23.25
2019-04-03T20:24:44.201Z,23.26
2019-04-03T20:26:46.658Z,23.13
2019-04-03T20:28:46.679Z,22.94
2019-04-03T20:30:48.296Z,22.82
2019-04-03T20:32:49.899Z,22.91
2019-04-03T20:34:51.532Z,22.97
2019-04-03T20:36:54.992Z,23.06
2019-04-03T20:38:57.554Z,23.11
2019-04-03T20:40:56.540Z,23.01
2019-04-03T20:42:58.150Z,22.99
2019-04-03T20:44:59.770Z,22.97
2019-04-03T20:47:01.391Z,23.01
2019-04-03T20:49:03.389Z,22.97
2019-04-03T20:51:04.679Z,23.02
2019-04-03T20:53:06.269Z,22.94
2019-04-03T20:55:07.888Z,22.76
2019-04-03T20:57:09.497Z,22.75
2019-04-03T20:59:12.021Z,22.73
2019-04-03T21:01:12.732Z,22.78
2019-04-03T21:03:14.320Z,22.80
2019-04-03T21:05:17.823Z,22.84
2019-04-03T21:07:17.603Z,22.90
2019-04-03T21:09:19.220Z,22.87
2019-04-03T21:11:20.835Z,22.76
2019-04-03T21:13:22.456Z,22.73
2019-04-03T21:15:24.108Z,22.66
2019-04-03T21:17:25.733Z,22.34
2019-04-03T21:19:27.349Z,22.59
2019-04-03T21:21:28.976Z,22.65
2019-04-03T21:23:33.277Z,22.67
2019-04-03T21:25:32.293Z,22.73
2019-04-03T21:27:33.900Z,22.81
2019-04-03T21:29:35.483Z,22.82
2019-04-03T21:31:37.099Z,22.78
2019-04-03T21:33:38.693Z,22.85
2019-04-03T21:35:40.339Z,22.86
2019-04-03T21:37:41.953Z,22.80
2019-04-03T21:39:44.385Z,22.80
2019-04-03T21:41:45.255Z,22.77
2019-04-03T21:43:46.868Z,22.80
2019-04-03T21:45:48.516Z,22.82
2019-04-03T21:47:50.121Z,22.66
2019-04-03T21:49:51.708Z,22.75
2019-04-03T21:51:53.410Z,22.79
2019-04-03T21:53:56.479Z,22.78
2019-04-03T21:55:56.653Z,22.78
2019-04-03T21:57:58.231Z,22.79
2019-04-03T21:59:59.846Z,22.79
2019-04-03T22:02:01.493Z,22.76
2019-04-03T22:04:03.113Z,22.71
2019-04-03T22:06:04.820Z,22.75
2019-04-03T22:08:06.472Z,22.81
2019-04-03T22:10:08.983Z,22.71
2019-04-03T22:12:09.774Z,22.68
2019-04-03T22:14:11.698Z,22.65
2019-04-03T22:16:13.054Z,22.65
2019-04-03T22:18:14.648Z,22.69
2019-04-03T22:20:16.233Z,22.66
2019-04-03T22:22:17.984Z,22.67
2019-04-03T22:24:19.596Z,22.65
2019-04-03T22:26:21.211Z,22.77
2019-04-03T22:28:22.804Z,22.38
2019-04-03T22:30:24.417Z,22.16
2019-04-03T22:32:26.036Z,22.04
2019-04-03T22:34:27.971Z,22.23
2019-04-03T22:36:29.327Z,22.15
2019-04-03T22:38:31.396Z,22.07
2019-04-03T22:40:32.991Z,21.97
2019-04-03T22:42:34.608Z,21.88
2019-04-03T22:44:36.248Z,21.81
2019-04-03T22:46:37.840Z,21.84
2019-04-03T22:48:39.428Z,21.77
2019-04-03T22:50:41.031Z,21.71
2019-04-03T22:52:43.105Z,21.64
2019-04-03T22:54:44.732Z,21.59
2019-04-03T22:56:47.773Z,21.57
2019-04-03T22:58:47.999Z,21.50
2019-04-03T23:00:49.610Z,21.50
2019-04-03T23:02:51.213Z,21.46
2019-04-03T23:04:52.806Z,21.41
2019-04-03T23:06:54.397Z,21.37
2019-04-03T23:08:55.989Z,21.34
2019-04-03T23:11:00.743Z,21.28
2019-04-03T23:12:59.241Z,21.24
2019-04-03T23:15:00.888Z,21.19
2019-04-03T23:17:02.507Z,21.15
2019-04-03T23:19:04.133Z,21.13
2019-04-03T23:21:05.748Z,21.09
2019-04-03T23:23:07.368Z,21.06
2019-04-03T23:25:08.992Z,21.05
2019-04-03T23:27:10.639Z,21.03
2019-04-03T23:29:12.234Z,21.02
2019-04-03T23:31:13.862Z,20.99
2019-04-03T23:33:16.892Z,20.99
2019-04-03T23:35:17.169Z,21.00
2019-04-03T23:37:18.791Z,21.00
2019-04-03T23:39:20.405Z,21.03
2019-04-03T23:41:21.998Z,21.06
2019-04-03T23:43:23.611Z,21.06
2019-04-03T23:45:25.212Z,21.05
2019-04-03T23:47:26.800Z,21.03
2019-04-03T23:49:28.409Z,21.01
2019-04-03T23:51:30.002Z,20.98
2019-04-03T23:53:32.611Z,20.95
2019-04-03T23:55:34.340Z,20.92
2019-04-03T23:57:34.959Z,20.89
2019-04-03T23:59:36.576Z,20.88
